Time;durP1;ratioP1;P1;durP2;ratioP2;P2;SDS_P1;SDS_P2;PMS_P1;PMS_P2;Temp;Humidity;BMP_temperature;BMP_pressure;BME280_temperature;BME280_humidity;BME280_pressure;Samples;Min_cycle;Max_cycle;Signal;HPM_P1;HPM_P2
2022/04/21 00:01:31;;;;;;;15.45;7.90;;;11.40;76.30;;;;;;5036594;28;20021;-63
2022/04/21 00:03:56;;;;;;;14.40;7.82;;;10.10;83.00;;;;;;5036508;28;20025;-60
2022/04/21 00:06:22;;;;;;;15.10;7.80;;;10.00;82.80;;;;;;5036219;28;20539;-62
2022/04/21 00:08:47;;;;;;;15.30;7.93;;;10.00;83.30;;;;;;5053535;28;20034;-63
2022/04/21 00:11:13;;;;;;;17.27;8.40;;;;;;;;;;5054206;28;20031;-62
2022/04/21 00:13:39;;;;;;;15.43;8.10;;;10.00;83.40;;;;;;5054303;28;20124;-62
2022/04/21 00:16:05;;;;;;;16.52;8.30;;;9.90;83.10;;;;;;5054075;28;20041;-63
2022/04/21 00:18:31;;;;;;;16.23;8.57;;;;;;;;;;5054126;28;20032;-64
2022/04/21 00:20:59;;;;;;;17.13;8.75;;;;;;;;;;5053984;28;20017;-62
2022/04/21 00:23:29;;;;;;;16.23;8.20;;;;;;;;;;5035539;28;20021;-61
2022/04/21 00:25:56;;;;;;;15.52;8.20;;;;;;;;;;5053951;28;20024;-63
2022/04/21 00:28:22;;;;;;;16.30;8.52;;;;;;;;;;5035951;28;20106;-60
2022/04/21 00:30:48;;;;;;;15.57;8.30;;;;;;;;;;5053451;28;20032;-61
2022/04/21 00:33:14;;;;;;;16.73;8.90;;;;;;;;;;5054104;28;20107;-62
2022/04/21 00:35:40;;;;;;;16.73;9.30;;;;;;;;;;5053514;28;20028;-63
2022/04/21 00:38:06;;;;;;;14.98;8.50;;;;;;;;;;5054007;28;20552;-63
2022/04/21 00:40:32;;;;;;;17.45;8.40;;;;;;;;;;5053678;28;20033;-63
2022/04/21 00:42:59;;;;;;;15.85;7.85;;;;;;;;;;5053390;28;20021;-62
2022/04/21 00:45:25;;;;;;;15.40;8.13;;;9.90;82.80;;;;;;5052968;28;20076;-62
2022/04/21 00:47:53;;;;;;;15.07;7.93;;;9.90;83.90;;;;;;5056298;28;20029;-61
2022/04/21 00:50:22;;;;;;;16.45;8.05;;;;;;;;;;5055399;28;20021;-60
2022/04/21 00:52:49;;;;;;;15.60;8.77;;;;;;;;;;5036431;28;20031;-64
2022/04/21 00:55:15;;;;;;;17.35;8.32;;;;;;;;;;5052322;28;20025;-62
2022/04/21 00:57:43;;;;;;;17.48;8.20;;;9.80;83.70;;;;;;5053394;28;20111;-61
2022/04/21 01:00:10;;;;;;;14.23;7.97;;;9.70;84.50;;;;;;5035253;28;20102;-61
2022/04/21 01:02:52;;;;;;;15.75;8.77;;;9.70;85.30;;;;;;5053251;28;20020;-60
2022/04/21 01:05:32;;;;;;;16.50;8.27;;;9.70;86.00;;;;;;5053044;28;20055;-61
2022/04/21 01:07:59;;;;;;;15.10;7.97;;;;;;;;;;5053357;28;20057;-63
2022/04/21 01:10:26;;;;;;;15.75;8.43;;;;;;;;;;5052713;28;20493;-63
2022/04/21 01:12:53;;;;;;;15.57;8.30;;;;;;;;;;5053324;28;20118;-61
2022/04/21 01:15:19;;;;;;;15.80;8.82;;;;;;;;;;5052435;28;20512;-63
2022/04/21 01:17:48;;;;;;;16.52;9.07;;;;;;;;;;5052986;28;20469;-63
2022/04/21 01:20:18;;;;;;;16.10;8.20;;;;;;;;;;5052885;28;20017;-62
2022/04/21 01:22:44;;;;;;;14.90;8.02;;;;;;;;;;5053031;28;20024;-61
2022/04/21 01:25:11;;;;;;;15.23;8.48;;;;;;;;;;5052619;28;20025;-62
2022/04/21 01:27:37;;;;;;;16.30;8.60;;;;;;;;;;5053185;28;20120;-63
2022/04/21 01:30:04;;;;;;;16.15;8.52;;;;;;;;;;5034787;28;20036;-64
2022/04/21 01:32:34;;;;;;;16.58;8.90;;;;;;;;;;5053025;28;20043;-64
2022/04/21 01:35:00;;;;;;;15.85;8.25;;;;;;;;;;5052438;28;20535;-63
2022/04/21 01:42:56;;;;;;;16.55;8.63;;;;;;;;;;5053195;28;20113;-62
2022/04/21 01:45:21;;;;;;;17.40;8.32;;;;;;;;;;5052414;28;20052;-60
2022/04/21 01:47:48;;;;;;;18.33;9.45;;;;;;;;;;5052639;28;20036;-62
2022/04/21 01:50:14;;;;;;;15.40;8.55;;;;;;;;;;5052293;28;20451;-60
2022/04/21 01:52:40;;;;;;;24.63;10.88;;;;;;;;;;5052712;28;20029;-62
2022/04/21 01:55:06;;;;;;;29.27;19.08;;;;;;;;;;5052033;28;20031;-61
2022/04/21 01:57:32;;;;;;;28.30;18.80;;;;;;;;;;5052678;28;20489;-63
2022/04/21 01:59:58;;;;;;;21.10;10.93;;;;;;;;;;5052271;28;20036;-63
2022/04/21 02:02:24;;;;;;;18.13;10.25;;;;;;;;;;5052798;28;20025;-61
2022/04/21 02:04:50;;;;;;;27.30;16.70;;;;;;;;;;5052848;28;20025;-64
2022/04/21 02:07:17;;;;;;;22.15;13.43;;;;;;;;;;5053851;28;20028;-64
2022/04/21 02:09:43;;;;;;;24.00;14.50;;;;;;;;;;5053556;28;20389;-62
2022/04/21 02:12:09;;;;;;;16.05;9.82;;;;;;;;;;5053283;28;20025;-62
2022/04/21 02:14:35;;;;;;;17.13;8.82;;;;;;;;;;5053034;28;20075;-61
2022/04/21 02:17:05;;;;;;;16.23;9.23;;;;;;;;;;5052030;28;20436;-61
2022/04/21 02:19:31;;;;;;;14.82;8.43;;;;;;;;;;5051975;28;20021;-60
2022/04/21 02:21:57;;;;;;;14.80;8.05;;;;;;;;;;5052450;28;20087;-60
2022/04/21 02:24:23;;;;;;;21.35;8.70;;;;;;;;;;5034327;28;20112;-60
2022/04/21 02:26:49;;;;;;;22.38;9.23;;;;;;;;;;5052290;28;20102;-60
2022/04/21 02:29:15;;;;;;;14.35;8.02;;;;;;;;;;5052111;28;20056;-60
2022/04/21 02:31:41;;;;;;;15.48;8.40;;;;;;;;;;5052338;28;20051;-58
2022/04/21 02:34:06;;;;;;;16.10;8.55;;;;;;;;;;5033924;28;20044;-63
2022/04/21 02:36:33;;;;;;;13.93;7.88;;;;;;;;;;5051760;28;20029;-63
2022/04/21 02:38:58;;;;;;;15.77;8.00;;;;;;;;;;5054173;28;20036;-62
2022/04/21 02:41:26;;;;;;;15.13;8.25;;;;;;;;;;5055820;28;20045;-63
2022/04/21 02:43:52;;;;;;;16.50;9.07;;;;;;;;;;5055767;28;20543;-61
2022/04/21 02:46:18;;;;;;;15.52;8.40;;;;;;;;;;5055009;28;20029;-62
2022/04/21 02:48:44;;;;;;;14.65;8.05;;;;;;;;;;5037882;28;20037;-60
2022/04/21 02:51:10;;;;;;;19.13;8.52;;;;;;;;;;5055357;28;20036;-60
2022/04/21 02:59:06;;;;;;;15.57;8.50;;;;;;;;;;5055098;28;20339;-63
2022/04/21 03:01:32;;;;;;;15.00;8.40;;;;;;;;;;5055594;28;20033;-61
2022/04/21 03:03:58;;;;;;;16.65;9.35;;;;;;;;;;5037571;28;20021;-61
2022/04/21 03:06:24;;;;;;;17.75;8.13;;;;;;;;;;5037330;28;20024;-63
2022/04/21 03:08:50;;;;;;;15.55;8.82;;;;;;;;;;5055273;28;20032;-63
2022/04/21 03:11:17;;;;;;;16.00;8.40;;;;;;;;;;5055518;28;20032;-63
2022/04/21 03:13:43;;;;;;;15.93;8.05;;;;;;;;;;5055495;28;20025;-60
2022/04/21 03:16:09;;;;;;;15.40;8.15;;;;;;;;;;5054890;28;20492;-63
2022/04/21 03:18:34;;;;;;;15.10;8.23;;;;;;;;;;5055312;28;20033;-63
2022/04/21 03:26:29;;;;;;;15.45;8.25;;;;;;;;;;5055260;28;20551;-63
2022/04/21 03:28:55;;;;;;;15.02;7.97;;;;;;;;;;5055036;28;20029;-60
2022/04/21 03:31:23;;;;;;;15.52;8.15;;;;;;;;;;5055095;28;20454;-64
2022/04/21 03:33:50;;;;;;;15.85;8.38;;;;;;;;;;5037157;28;20021;-64
2022/04/21 03:36:16;;;;;;;16.05;8.75;;;;;;;;;;5055130;28;20037;-62
2022/04/21 03:38:42;;;;;;;16.55;8.32;;;;;;;;;;5054850;28;20496;-62
2022/04/21 03:41:08;;;;;;;17.60;8.63;;;;;;;;;;5054490;28;20096;-63
2022/04/21 03:43:35;;;;;;;15.93;8.23;;;;;;;;;;5055052;28;20029;-64
2022/04/21 03:46:01;;;;;;;15.82;8.32;;;;;;;;;;5054740;28;20488;-62
2022/04/21 03:48:27;;;;;;;17.55;9.15;;;;;;;;;;5054704;28;20029;-61
2022/04/21 03:50:53;;;;;;;16.55;8.65;;;;;;;;;;5052682;28;20028;-60
2022/04/21 03:53:19;;;;;;;15.85;8.52;;;;;;;;;;5054298;28;20397;-61
2022/04/21 03:55:44;;;;;;;16.95;9.85;;;;;;;;;;5036148;28;20036;-62
2022/04/21 03:58:10;;;;;;;16.10;7.85;;;;;;;;;;5036722;28;20035;-63
2022/04/21 04:00:36;;;;;;;16.67;8.85;;;;;;;;;;5054482;28;20028;-62
2022/04/21 04:03:02;;;;;;;16.30;8.35;;;;;;;;;;5054858;28;20021;-60
2022/04/21 04:05:28;;;;;;;16.00;8.85;;;9.60;85.40;;;;;;5053784;28;20029;-64
2022/04/21 04:10:53;;;;;;;17.48;9.32;;;7.70;99.90;;;;;;5053928;28;20036;-63
2022/04/21 04:13:20;;;;;;;16.23;9.30;;;7.70;99.90;;;;;;5054544;28;20155;-62
2022/04/21 04:15:47;;;;;;;17.33;9.35;;;7.70;99.90;;;;;;5053840;28;20082;-63
2022/04/21 04:18:16;;;;;;;16.70;9.25;;;7.60;99.90;;;;;;5053848;28;20025;-60
2022/04/21 04:20:42;;;;;;;;;;;7.60;99.90;;;;;;5053918;28;20508;-64
2022/04/21 04:23:08;;;;;;;15.48;8.90;;;7.60;99.90;;;;;;5054151;28;19909;-62
2022/04/21 04:25:33;;;;;;;16.33;8.73;;;7.60;99.90;;;;;;5053678;28;20021;-64
2022/04/21 04:27:59;;;;;;;17.58;9.60;;;7.50;99.90;;;;;;5054050;28;20063;-64
2022/04/21 04:30:25;;;;;;;18.35;9.15;;;7.50;99.90;;;;;;5053516;28;20064;-60
2022/04/21 04:32:50;;;;;;;15.98;9.40;;;7.50;99.90;;;;;;5053858;28;20392;-64
2022/04/21 04:35:16;;;;;;;17.75;9.45;;;7.50;99.90;;;;;;5053450;28;20025;-64
2022/04/21 04:37:41;;;;;;;17.88;9.60;;;7.50;99.90;;;;;;5035664;28;20025;-62
2022/04/21 04:40:08;;;;;;;16.88;9.10;;;7.50;99.90;;;;;;5053014;28;20025;-62
2022/04/21 04:42:33;;;;;;;16.35;8.98;;;7.50;99.90;;;;;;5053298;28;20096;-66
2022/04/21 04:47:43;;;;;;;19.73;9.48;;;7.50;99.90;;;;;;5053622;28;20086;-64
2022/04/21 04:50:09;;;;;;;19.67;9.88;;;7.60;99.90;;;;;;5052526;28;20119;-60
2022/04/21 04:52:35;;;;;;;17.05;9.55;;;7.70;99.90;;;;;;5053334;28;20132;-63
2022/04/21 04:55:01;;;;;;;20.85;9.32;;;8.00;99.90;;;;;;5052860;28;20028;-63
2022/04/21 04:57:26;;;;;;;18.73;9.52;;;8.20;99.90;;;;;;5053151;28;20052;-62
2022/04/21 04:59:52;;;;;;;17.15;9.32;;;8.30;99.90;;;;;;5052854;28;20021;-64
2022/04/21 05:02:20;;;;;;;18.23;9.02;;;8.30;99.90;;;;;;5034927;28;20033;-63
2022/04/21 05:04:47;;;;;;;17.20;9.65;;;8.30;99.90;;;;;;5052949;28;20388;-61
2022/04/21 05:07:13;;;;;;;17.10;9.35;;;8.20;99.90;;;;;;5053263;28;20029;-64
2022/04/21 05:09:39;;;;;;;19.05;9.00;;;8.20;99.90;;;;;;5052988;28;20017;-62
2022/04/21 05:12:04;;;;;;;17.15;9.45;;;8.20;99.90;;;;;;5053305;28;20119;-64
2022/04/21 05:14:30;;;;;;;17.75;9.35;;;8.10;99.90;;;;;;5034454;28;20033;-63
2022/04/21 05:16:56;;;;;;;16.08;8.52;;;8.20;99.90;;;;;;5051391;28;20107;-64
2022/04/21 05:19:21;;;;;;;16.67;9.05;;;8.20;99.90;;;;;;5052303;28;20021;-64
2022/04/21 05:21:49;;;;;;;18.38;9.38;;;8.20;99.90;;;;;;5052266;28;20033;-65
2022/04/21 05:24:15;;;;;;;16.35;9.02;;;8.30;99.90;;;;;;5052301;28;20029;-62
2022/04/21 05:26:42;;;;;;;18.13;8.80;;;8.30;99.90;;;;;;5052655;28;20045;-65
2022/04/21 05:31:58;;;;;;;17.67;8.95;;;8.40;99.90;;;;;;5053249;28;20264;-62
2022/04/21 05:34:25;;;;;;;18.55;8.88;;;8.50;99.90;;;;;;5052167;28;20017;-63
2022/04/21 05:36:51;;;;;;;16.73;8.90;;;8.50;99.90;;;;;;5052747;28;20017;-64
2022/04/21 05:39:18;;;;;;;18.63;9.15;;;8.50;99.90;;;;;;5051422;28;20056;-62
2022/04/21 05:41:44;;;;;;;17.55;9.05;;;8.50;99.90;;;;;;5052543;28;20048;-64
2022/04/21 05:44:11;;;;;;;17.02;9.05;;;8.60;99.90;;;;;;5052544;28;20020;-62
2022/04/21 05:46:37;;;;;;;18.15;8.52;;;8.60;99.90;;;;;;5052862;28;20020;-64
2022/04/21 05:49:03;;;;;;;18.10;8.10;;;8.60;99.90;;;;;;5052096;28;20120;-64
2022/04/21 05:51:29;;;;;;;18.20;9.00;;;8.60;99.90;;;;;;5052653;28;20029;-64
2022/04/21 05:53:58;;;;;;;18.95;9.07;;;8.60;99.90;;;;;;5053286;28;20025;-62
2022/04/21 05:56:24;;;;;;;16.40;8.57;;;8.70;99.90;;;;;;5034135;28;20021;-64
2022/04/21 05:58:50;;;;;;;20.55;10.60;;;8.70;99.90;;;;;;5051846;28;20033;-61
2022/04/21 06:01:16;;;;;;;17.88;8.93;;;8.70;99.90;;;;;;5052361;28;20028;-60
2022/04/21 06:03:42;;;;;;;16.63;9.07;;;8.70;99.90;;;;;;5052719;28;20374;-60
2022/04/21 06:06:09;;;;;;;15.88;9.00;;;8.70;99.90;;;;;;5052375;28;20071;-62
2022/04/21 06:08:38;;;;;;;17.73;8.68;;;8.70;99.90;;;;;;5051874;28;20075;-62
2022/04/21 06:11:05;;;;;;;18.40;8.98;;;8.80;99.90;;;;;;5051637;28;20112;-61
2022/04/21 06:13:31;;;;;;;17.67;9.07;;;8.80;99.90;;;;;;5053593;28;20056;-63
2022/04/21 06:15:57;;;;;;;17.52;9.65;;;8.70;99.90;;;;;;5055196;28;20037;-63
2022/04/21 06:18:24;;;;;;;17.35;8.93;;;8.80;99.90;;;;;;5057805;28;20094;-61
2022/04/21 06:20:51;;;;;;;16.95;9.30;;;8.90;99.90;;;;;;5056397;28;20029;-65
2022/04/21 06:23:17;;;;;;;17.35;9.95;;;8.90;99.90;;;;;;5056066;28;20027;-60
2022/04/21 06:25:43;;;;;;;18.60;9.52;;;9.00;99.90;;;;;;5037125;28;20112;-60
2022/04/21 06:28:10;;;;;;;19.65;8.50;;;9.00;99.90;;;;;;5056460;28;20028;-61
2022/04/21 06:30:35;;;;;;;19.45;9.60;;;9.10;99.90;;;;;;5055850;28;20134;-61
2022/04/21 06:33:02;;;;;;;17.05;8.52;;;9.10;99.90;;;;;;5056072;28;20505;-63
2022/04/21 06:35:28;;;;;;;18.08;9.55;;;9.00;99.90;;;;;;5055870;28;20021;-62
2022/04/21 06:37:54;;;;;;;17.67;9.43;;;9.00;99.90;;;;;;5056014;28;20029;-62
2022/04/21 06:40:20;;;;;;;18.00;9.10;;;9.10;99.90;;;;;;5055316;28;20024;-60
2022/04/21 06:42:46;;;;;;;16.58;8.98;;;9.20;99.90;;;;;;5056343;28;20385;-61
2022/04/21 06:48:03;;;;;;;18.90;9.30;;;9.20;99.90;;;;;;5056030;28;20059;-62
2022/04/21 06:50:39;;;;;;;18.13;9.75;;;9.20;99.90;;;;;;5055276;28;20488;-61
2022/04/21 06:53:07;;;;;;;18.67;9.23;;;9.30;99.90;;;;;;5038067;28;20424;-64
2022/04/21 06:55:33;;;;;;;18.50;9.63;;;9.40;99.90;;;;;;5055309;28;20033;-61
2022/04/21 06:58:00;;;;;;;19.17;9.52;;;9.50;99.90;;;;;;5055571;28;20060;-61
2022/04/21 07:00:26;;;;;;;18.95;9.23;;;9.60;99.90;;;;;;5055513;28;20501;-64
2022/04/21 07:02:57;;;;;;;18.60;10.00;;;9.60;99.90;;;;;;5055502;28;20029;-63
2022/04/21 07:05:24;;;;;;;16.65;9.82;;;9.70;99.90;;;;;;5055356;28;20029;-61
2022/04/21 07:07:50;;;;;;;17.42;9.90;;;9.80;99.90;;;;;;5055655;28;20029;-64
2022/04/21 07:10:18;;;;;;;19.15;9.98;;;9.80;99.90;;;;;;5054876;28;20378;-64
2022/04/21 07:12:44;;;;;;;18.25;9.93;;;9.80;99.90;;;;;;5055570;28;20519;-62
2022/04/21 07:15:11;;;;;;;20.63;9.77;;;9.90;99.90;;;;;;5055094;28;20025;-63
2022/04/21 07:17:37;;;;;;;17.58;10.02;;;10.00;99.90;;;;;;5055489;28;20075;-63
2022/04/21 07:20:05;;;;;;;18.85;9.95;;;10.00;99.90;;;;;;5054533;28;20166;-63
2022/04/21 07:22:31;;;;;;;17.97;10.23;;;9.90;99.90;;;;;;5055219;28;20032;-62
2022/04/21 07:24:58;;;;;;;22.52;11.05;;;10.00;99.90;;;;;;5054853;28;20029;-63
2022/04/21 07:27:24;;;;;;;17.48;9.93;;;10.00;99.90;;;;;;5055207;28;20107;-61
2022/04/21 07:29:50;;;;;;;19.02;10.35;;;10.00;99.90;;;;;;5054503;28;20080;-62
2022/04/21 07:32:17;;;;;;;18.70;9.73;;;9.90;99.90;;;;;;5055352;28;20029;-62
2022/04/21 07:34:43;;;;;;;23.20;10.82;;;9.90;99.90;;;;;;5055073;28;20029;-64
2022/04/21 07:37:10;;;;;;;17.80;9.57;;;9.90;99.90;;;;;;5054589;28;20373;-63
2022/04/21 07:39:42;;;;;;;19.85;10.55;;;9.80;99.90;;;;;;5054694;28;20020;-64
2022/04/21 07:42:09;;;;;;;17.90;9.65;;;9.90;99.90;;;;;;5052925;28;20029;-63
2022/04/21 07:44:35;;;;;;;17.10;9.60;;;10.10;99.90;;;;;;5053903;28;20481;-60
2022/04/21 07:47:01;;;;;;;20.27;10.60;;;10.20;99.90;;;;;;5055063;28;20059;-62
2022/04/21 07:49:46;;;;;;;24.13;11.45;;;10.50;99.90;;;;;;5054542;28;20025;-58
2022/04/21 07:55:24;;;;;;;19.10;10.30;;;11.00;99.90;;;;;;5035174;28;20031;-60
2022/04/21 07:57:52;;;;;;;18.45;10.00;;;11.10;99.90;;;;;;5034275;28;20634;-60
2022/04/21 08:00:18;;;;;;;18.73;9.80;;;11.20;99.90;;;;;;5033541;28;20025;-60
2022/04/21 08:02:45;;;;;;;19.60;10.57;;;11.40;99.90;;;;;;5034074;28;20091;-60
2022/04/21 08:05:13;;;;;;;18.40;10.80;;;11.40;99.90;;;;;;5016107;28;20109;-61
2022/04/21 08:07:39;;;;;;;16.63;10.07;;;11.40;99.90;;;;;;5016308;28;20497;-62
2022/04/21 08:10:06;;;;;;;16.48;10.50;;;11.50;99.90;;;;;;5033496;28;20036;-59
2022/04/21 08:12:45;;;;;;;16.93;10.50;;;11.50;99.90;;;;;;5034046;28;20030;-56
2022/04/21 08:15:16;;;;;;;17.20;10.27;;;11.40;99.90;;;;;;5033379;28;20029;-62
2022/04/21 08:17:42;;;;;;;19.45;10.32;;;11.40;99.90;;;;;;5033900;28;20029;-60
2022/04/21 08:20:11;;;;;;;16.85;10.00;;;11.40;99.90;;;;;;5033602;28;20450;-61
2022/04/21 08:22:37;;;;;;;17.35;10.75;;;11.50;99.90;;;;;;5034864;28;20032;-60
2022/04/21 08:33:18;;;;;;;17.35;11.25;;;11.90;99.90;;;;;;5040935;28;20068;-59
2022/04/21 08:35:44;;;;;;;17.58;10.00;;;12.00;99.60;;;;;;5040064;28;20514;-60
2022/04/21 08:38:11;;;;;;;17.42;10.05;;;12.40;99.60;;;;;;5050671;28;20029;-60
2022/04/21 08:40:37;;;;;;;15.48;9.85;;;12.70;98.90;;;;;;5049712;28;20024;-61
2022/04/21 08:43:15;;;;;;;17.23;10.65;;;13.10;98.50;;;;;;5052428;28;20104;-58
2022/04/21 08:45:45;;;;;;;19.45;10.85;;;13.50;97.20;;;;;;5069415;28;20400;-60
2022/04/21 08:48:11;;;;;;;16.92;9.98;;;14.00;96.70;;;;;;5069791;28;20047;-61
2022/04/21 08:50:38;;;;;;;17.20;10.52;;;14.30;95.60;;;;;;5051482;28;20043;-58
2022/04/21 08:53:04;;;;;;;17.80;10.50;;;;;;;;;;5070178;28;20024;-57
2022/04/21 08:55:31;;;;;;;18.77;10.55;;;;;;;;;;5069317;28;20503;-60
2022/04/21 08:57:56;;;;;;;20.35;10.85;;;14.70;94.80;;;;;;5043214;28;20677;-60
2022/04/21 09:00:22;;;;;;;17.05;10.45;;;15.20;92.00;;;;;;5041576;28;20125;-63
2022/04/21 09:02:49;;;;;;;18.42;10.35;;;15.40;91.30;;;;;;5049906;28;20100;-64
2022/04/21 09:05:15;;;;;;;18.85;10.07;;;15.60;90.40;;;;;;5049703;28;20032;-62
2022/04/21 09:07:45;;;;;;;23.10;10.65;;;15.70;88.60;;;;;;5050123;28;20029;-63
2022/04/21 09:10:12;;;;;;;15.90;9.73;;;;;;;;;;5050115;28;20037;-65
2022/04/21 09:12:46;;;;;;;16.88;9.57;;;;;;;;;;5049978;28;20029;-64
2022/04/21 09:15:16;;;;;;;19.92;10.05;;;;;;;;;;5049344;28;20025;-64
2022/04/21 09:17:53;;;;;;;16.42;9.63;;;15.70;86.00;;;;;;5065715;28;20025;-64
2022/04/21 09:20:34;;;;;;;16.52;10.00;;;16.20;80.00;;;;;;5064756;28;20437;-62
2022/04/21 09:23:04;;;;;;;17.02;9.80;;;15.80;80.40;;;;;;5065064;28;20052;-64
2022/04/21 09:25:45;;;;;;;17.30;9.35;;;15.80;78.40;;;;;;5049338;28;20059;-64
2022/04/21 09:28:24;;;;;;;17.20;9.00;;;15.80;77.80;;;;;;5043248;28;20036;-64
2022/04/21 09:30:52;;;;;;;17.52;10.00;;;15.50;76.60;;;;;;5049329;28;20485;-63
2022/04/21 09:33:32;;;;;;;15.55;9.20;;;15.60;76.30;;;;;;5014089;28;20101;-62
2022/04/21 09:35:59;;;;;;;18.13;9.30;;;15.40;76.60;;;;;;5029561;28;20045;-63
2022/04/21 09:38:25;;;;;;;15.75;9.10;;;15.40;76.90;;;;;;5029627;28;20029;-62
2022/04/21 09:40:50;;;;;;;17.33;8.93;;;15.30;77.50;;;;;;5029468;28;20629;-63
2022/04/21 09:43:30;;;;;;;17.70;9.40;;;15.40;78.50;;;;;;5043431;28;20025;-63
2022/04/21 09:46:14;;;;;;;16.70;8.75;;;15.40;77.90;;;;;;5051576;28;20028;-64
2022/04/21 09:48:41;;;;;;;18.10;9.65;;;15.70;77.90;;;;;;5034792;28;20024;-63
2022/04/21 09:51:07;;;;;;;17.11;8.96;;;15.80;77.30;;;;;;4701833;28;10001068;-62
2022/04/21 09:54:00;;;;;;;19.13;9.07;;;15.80;76.30;;;;;;5049265;28;20032;-60
2022/04/21 09:56:39;;;;;;;16.98;9.40;;;16.10;74.90;;;;;;5049190;28;20036;-61
2022/04/21 09:59:08;;;;;;;16.23;9.98;;;16.50;74.80;;;;;;5048880;28;20099;-61
2022/04/21 10:01:37;;;;;;;17.23;9.40;;;16.30;74.50;;;;;;5057188;28;20514;-61
2022/04/21 10:04:11;;;;;;;14.98;9.30;;;16.30;74.40;;;;;;5067209;28;20036;-60
2022/04/21 10:06:42;;;;;;;18.33;10.02;;;16.00;74.20;;;;;;5043793;28;20389;-63
2022/04/21 10:09:10;;;;;;;17.83;10.00;;;16.40;73.80;;;;;;5040135;28;20060;-62
2022/04/21 10:11:41;;;;;;;16.70;10.73;;;16.90;73.00;;;;;;5039665;28;20099;-62
2022/04/21 10:14:17;;;;;;;19.27;9.85;;;16.90;72.30;;;;;;5045517;28;20505;-62
2022/04/21 10:16:44;;;;;;;15.10;9.60;;;17.30;72.50;;;;;;5048953;28;20405;-62
2022/04/21 10:19:11;;;;;;;15.75;9.70;;;17.40;71.60;;;;;;5048870;28;20021;-61
2022/04/21 10:21:48;;;;;;;16.38;10.00;;;17.60;72.40;;;;;;5043040;28;20033;-62
2022/04/21 10:24:24;;;;;;;16.90;9.98;;;17.40;72.20;;;;;;5037946;28;20079;-62
2022/04/21 10:26:49;;;;;;;39.17;26.35;;;17.50;72.10;;;;;;5037276;28;20022;-65
2022/04/21 10:29:39;;;;;;;21.90;11.02;;;17.10;72.50;;;;;;5035468;28;20595;-65
2022/04/21 10:32:05;;;;;;;19.58;12.27;;;16.70;74.30;;;;;;5028038;28;20032;-64
2022/04/21 10:34:37;;;;;;;19.38;11.93;;;16.60;74.70;;;;;;5028779;28;20456;-64
2022/04/21 10:37:15;;;;;;;20.95;13.63;;;16.90;75.10;;;;;;5036381;28;20037;-64
2022/04/21 10:40:01;;;;;;;18.02;10.93;;;17.10;75.50;;;;;;5038374;28;20555;-64
2022/04/21 10:42:27;;;;;;;17.55;10.27;;;16.90;74.10;;;;;;5048728;28;20071;-64
2022/04/21 10:44:54;;;;;;;17.70;11.15;;;16.70;75.40;;;;;;5049033;28;20029;-61
2022/04/21 10:48:01;;;;;;;18.75;12.07;;;16.70;76.00;;;;;;5030953;28;20032;-62
2022/04/21 10:50:31;;;;;;;21.13;12.00;;;17.20;75.60;;;;;;5028166;28;20087;-60
2022/04/21 10:58:34;;;;;;;16.88;10.20;;;17.90;75.80;;;;;;5043429;28;20040;-61
2022/04/21 11:01:22;;;;;;;18.92;10.65;;;18.00;74.30;;;;;;5040566;28;20030;-62
2022/04/21 11:04:05;;;;;;;22.95;10.77;;;18.00;75.00;;;;;;5042809;28;20025;-62
2022/04/21 11:07:04;;;;;;;16.95;10.95;;;17.80;74.20;;;;;;5022700;28;20393;-61
2022/04/21 11:09:50;;;;;;;16.67;10.65;;;18.20;74.10;;;;;;5041020;28;20025;-61
2022/04/21 11:12:37;;;;;;;18.15;11.75;;;18.50;73.50;;;;;;5040802;28;20438;-63
2022/04/21 11:15:28;;;;;;;17.70;11.00;;;18.50;74.00;;;;;;5032546;28;20028;-63
2022/04/21 11:18:21;;;;;;;18.33;11.70;;;18.70;72.40;;;;;;5017722;28;20433;-64
2022/04/21 11:20:49;;;;;;;16.63;11.00;;;18.70;73.20;;;;;;5034625;28;20036;-61
2022/04/21 11:23:20;;;;;;;24.38;11.73;;;19.70;71.50;;;;;;5034803;28;20151;-61
2022/04/21 11:25:47;;;;;;;17.80;11.20;;;20.70;70.90;;;;;;5016580;28;20022;-60
2022/04/21 11:28:14;;;;;;;18.90;11.65;;;21.30;68.30;;;;;;5040964;28;20027;-64
2022/04/21 11:30:40;;;;;;;18.00;12.07;;;21.60;68.00;;;;;;5053660;28;20025;-64
2022/04/21 11:33:11;;;;;;;16.48;11.40;;;22.40;68.00;;;;;;5036522;28;20028;-63
2022/04/21 11:35:38;;;;;;;20.90;11.88;;;23.00;66.00;;;;;;5051769;28;20087;-64
2022/04/21 11:38:03;;;;;;;20.42;12.80;;;23.40;65.20;;;;;;5035137;28;20029;-62
2022/04/21 11:40:31;;;;;;;19.85;12.15;;;24.10;64.30;;;;;;5034095;28;20612;-63
2022/04/21 11:42:58;;;;;;;18.52;12.40;;;24.20;62.40;;;;;;5034498;28;20022;-64
2022/04/21 11:45:25;;;;;;;17.55;12.18;;;23.50;60.70;;;;;;5034526;28;20026;-65
2022/04/21 11:47:52;;;;;;;20.87;13.97;;;23.10;62.00;;;;;;5035556;28;20025;-63
2022/04/21 11:50:22;;;;;;;17.90;12.85;;;23.00;62.70;;;;;;5034509;28;20069;-66
2022/04/21 11:52:52;;;;;;;20.17;12.55;;;22.00;63.30;;;;;;5034724;28;20079;-66
2022/04/21 11:55:26;;;;;;;17.30;12.23;;;22.40;64.70;;;;;;5034151;28;20029;-66
2022/04/21 11:57:52;;;;;;;16.85;12.45;;;23.00;64.20;;;;;;5034493;28;20030;-66
2022/04/21 12:06:28;;;;;;;18.40;12.40;;;22.60;63.20;;;;;;5034230;28;20026;-66
2022/04/21 12:08:44;;;;;;;18.80;11.90;;;20.70;66.50;;;;;;5054609;28;20040;-65
2022/04/21 12:11:10;;;;;;;19.17;12.60;;;21.10;67.20;;;;;;5051787;28;20079;-65
2022/04/21 12:13:39;;;;;;;17.48;12.10;;;21.60;67.60;;;;;;5036275;28;20025;-65
2022/04/21 12:16:25;;;;;;;19.73;12.27;;;22.30;65.90;;;;;;5053549;28;20540;-65
2022/04/21 12:18:50;;;;;;;19.05;12.25;;;23.50;64.70;;;;;;5035740;28;20029;-65
2022/04/21 12:21:20;;;;;;;17.58;12.10;;;25.00;62.40;;;;;;5053902;28;20120;-65
2022/04/21 12:23:46;;;;;;;18.20;12.57;;;25.70;60.90;;;;;;5035682;28;20056;-66
2022/04/21 12:26:11;;;;;;;22.50;12.38;;;25.10;61.00;;;;;;5053819;28;20025;-65
2022/04/21 12:28:47;;;;;;;19.73;12.60;;;24.20;60.50;;;;;;5054103;28;20074;-65
2022/04/21 12:31:18;;;;;;;18.15;12.63;;;25.00;60.50;;;;;;5053761;28;20037;-65
2022/04/21 12:33:49;;;;;;;18.65;12.02;;;25.70;60.50;;;;;;5036360;28;20112;-66
2022/04/21 12:36:15;;;;;;;16.20;11.77;;;25.30;58.30;;;;;;5050275;28;20103;-66
2022/04/21 12:39:00;;;;;;;20.02;13.07;;;24.40;59.70;;;;;;5015705;28;20076;-64
2022/04/21 12:41:26;;;;;;;44.08;34.50;;;23.20;61.70;;;;;;5098441;23;20079;-56
2022/04/21 12:43:52;;;;;;;19.40;13.68;;;23.30;61.70;;;;;;5091755;28;20042;-59
2022/04/21 12:46:19;;;;;;;21.50;12.50;;;23.80;62.10;;;;;;5091158;28;20024;-62
2022/04/21 12:48:48;;;;;;;17.98;13.50;;;24.60;61.10;;;;;;5091403;28;20028;-62
2022/04/21 12:51:19;;;;;;;20.02;12.70;;;;;;;;;;5091441;28;20059;-63
2022/04/21 12:53:45;;;;;;;18.42;13.18;;;;;;;;;;5091637;28;20036;-63
2022/04/21 12:56:15;;;;;;;18.17;13.07;;;25.90;61.10;;;;;;5089982;28;20550;-62
2022/04/21 12:58:41;;;;;;;18.27;12.90;;;26.60;57.80;;;;;;5091104;28;20024;-61
2022/04/21 13:01:07;;;;;;;19.50;12.77;;;25.70;58.60;;;;;;5091175;28;20591;-61
2022/04/21 13:03:33;;;;;;;18.23;13.05;;;26.20;57.90;;;;;;5082828;28;20122;-61
2022/04/21 13:05:59;;;;;;;18.50;13.10;;;26.10;56.70;;;;;;5069186;28;20074;-62
2022/04/21 13:08:29;;;;;;;20.83;12.65;;;25.30;57.80;;;;;;5070994;28;20025;-61
2022/04/21 13:10:56;;;;;;;20.95;12.63;;;24.80;58.30;;;;;;5070257;28;20024;-58
2022/04/21 13:13:23;;;;;;;18.83;12.83;;;24.80;58.90;;;;;;4382644;28;9999931;-61
2022/04/21 13:15:49;;;;;;;20.27;12.80;;;24.60;58.90;;;;;;5088838;28;20047;-60
2022/04/21 13:18:16;;;;;;;18.88;12.73;;;22.70;60.00;;;;;;5090642;28;20034;-60
2022/04/21 13:23:30;;;;;;;18.17;12.02;;;22.00;62.30;;;;;;5091161;28;20214;-59
2022/04/21 13:25:56;;;;;;;18.33;12.27;;;21.70;63.80;;;;;;5089456;28;20048;-61
2022/04/21 13:28:22;;;;;;;18.80;12.88;;;21.50;64.10;;;;;;5091042;28;20031;-60
2022/04/21 13:33:21;;;;;;;18.38;12.63;;;22.10;63.00;;;;;;5090728;28;20024;-61
2022/04/21 13:33:34;;;;;;;18.45;11.95;;;21.50;62.80;;;;;;5090598;28;20024;-62
2022/04/21 13:36:00;;;;;;;18.77;12.25;;;21.50;63.70;;;;;;5090067;28;20023;-62
2022/04/21 13:38:25;;;;;;;20.45;12.88;;;22.80;64.00;;;;;;5091013;28;20035;-61
2022/04/21 13:40:51;;;;;;;19.77;13.55;;;23.40;61.70;;;;;;5090339;28;20031;-62
2022/04/21 13:43:17;;;;;;;18.45;12.75;;;23.50;60.40;;;;;;5089094;28;20395;-60
2022/04/21 13:45:42;;;;;;;18.40;13.02;;;23.80;60.40;;;;;;4735342;28;10000028;-61
2022/04/21 13:48:09;;;;;;;18.05;12.60;;;23.20;60.20;;;;;;5087239;28;20103;-62
2022/04/21 13:50:35;;;;;;;19.20;13.95;;;23.10;61.20;;;;;;5086895;28;20028;-63
2022/04/21 13:53:01;;;;;;;17.73;12.60;;;23.20;61.80;;;;;;5087530;28;20024;-63
2022/04/21 13:55:31;;;;;;;18.35;12.60;;;24.40;60.50;;;;;;5080151;28;20028;-62
2022/04/21 13:58:00;;;;;;;19.08;13.10;;;24.60;59.40;;;;;;5086829;28;20027;-62
2022/04/21 14:00:27;;;;;;;21.02;13.30;;;24.50;59.20;;;;;;5087013;28;20031;-68
2022/04/21 14:02:53;;;;;;;21.73;17.67;;;23.20;60.10;;;;;;5086817;28;20032;-61